createdAt,value
2018-09-17T00:02:02.331Z,13.08
2018-09-17T00:04:29.888Z,13.07
2018-09-17T00:06:57.461Z,13.02
2018-09-17T00:09:25.034Z,12.99
2018-09-17T00:11:53.420Z,12.96
2018-09-17T00:14:22.722Z,12.93
2018-09-17T00:16:50.879Z,12.94
2018-09-17T00:19:18.925Z,12.94
2018-09-17T00:21:46.510Z,12.94
2018-09-17T00:24:15.160Z,12.97
2018-09-17T00:26:42.850Z,12.95
2018-09-17T00:29:13.144Z,12.95
2018-09-17T00:31:41.809Z,12.93
2018-09-17T00:34:10.152Z,12.91
2018-09-17T00:36:38.268Z,12.86
2018-09-17T00:39:06.831Z,12.81
2018-09-17T00:41:34.392Z,12.79
2018-09-17T00:44:02.342Z,12.73
2018-09-17T00:46:31.571Z,12.69
2018-09-17T00:48:59.228Z,12.64
2018-09-17T00:51:26.858Z,12.61
2018-09-17T00:53:54.719Z,12.58
2018-09-17T00:56:25.251Z,12.50
2018-09-17T00:58:54.229Z,12.39
2018-09-17T01:01:22.858Z,12.30
2018-09-17T01:03:51.114Z,12.23
2018-09-17T01:06:20.396Z,12.17
2018-09-17T01:08:48.573Z,12.14
2018-09-17T01:11:16.146Z,12.11
2018-09-17T01:13:43.895Z,12.08
2018-09-17T01:16:11.494Z,12.05
2018-09-17T01:18:39.400Z,12.05
2018-09-17T01:21:07.945Z,12.05
2018-09-17T01:26:16.455Z,12.06
2018-09-17T01:28:44.233Z,12.11
2018-09-17T01:31:12.749Z,12.15
2018-09-17T01:33:40.637Z,12.19
2018-09-17T01:36:10.644Z,12.22
2018-09-17T01:38:38.199Z,12.18
2018-09-17T01:41:05.818Z,12.16
2018-09-17T01:43:33.420Z,12.12
2018-09-17T01:46:02.187Z,12.07
2018-09-17T01:48:29.785Z,12.04
2018-09-17T01:50:57.361Z,12.04
2018-09-17T01:53:25.398Z,12.02
2018-09-17T01:55:54.055Z,11.99
2018-09-17T01:58:21.801Z,11.98
2018-09-17T02:00:51.376Z,11.96
2018-09-17T02:03:22.061Z,11.94
2018-09-17T02:05:49.754Z,11.93
2018-09-17T02:08:17.313Z,11.89
2018-09-17T02:10:45.917Z,11.86
2018-09-17T02:13:15.941Z,11.80
2018-09-17T02:15:43.762Z,11.78
2018-09-17T02:18:11.359Z,11.76
2018-09-17T02:20:39.643Z,11.73
2018-09-17T02:23:07.246Z,11.71
2018-09-17T02:25:34.827Z,11.69
2018-09-17T02:28:02.908Z,11.64
2018-09-17T02:30:30.538Z,11.57
2018-09-17T02:32:58.495Z,11.50
2018-09-17T02:35:28.016Z,11.46
2018-09-17T02:37:56.279Z,11.48
2018-09-17T02:40:24.206Z,11.46
2018-09-17T02:42:52.232Z,11.45
2018-09-17T02:45:21.701Z,11.44
2018-09-17T02:47:49.304Z,11.45
2018-09-17T02:50:16.912Z,11.44
2018-09-17T02:52:44.579Z,11.43
2018-09-17T02:55:12.984Z,11.41
2018-09-17T02:57:41.188Z,11.41
2018-09-17T03:00:09.832Z,11.40
2018-09-17T03:02:37.800Z,11.37
2018-09-17T03:05:05.404Z,11.37
2018-09-17T03:07:33.713Z,11.36
2018-09-17T03:10:01.357Z,11.36
2018-09-17T03:12:29.311Z,11.35
2018-09-17T03:14:56.900Z,11.32
2018-09-17T03:17:24.517Z,11.30
2018-09-17T03:19:52.103Z,11.27
2018-09-17T03:22:20.379Z,11.24
2018-09-17T03:24:48.030Z,11.21
2018-09-17T03:27:15.615Z,11.19
2018-09-17T03:29:44.922Z,11.17
2018-09-17T03:32:12.596Z,11.15
2018-09-17T03:34:40.270Z,11.14
2018-09-17T03:37:08.192Z,11.11
2018-09-17T03:39:35.798Z,11.11
2018-09-17T03:42:04.047Z,11.10
2018-09-17T03:44:32.338Z,11.10
2018-09-17T03:46:59.938Z,11.10
2018-09-17T03:49:27.549Z,11.09
2018-09-17T03:51:55.583Z,11.08
2018-09-17T03:54:23.206Z,11.07
2018-09-17T03:56:50.799Z,11.05
2018-09-17T03:59:18.894Z,11.03
2018-09-17T04:01:46.460Z,10.99
2018-09-17T04:04:14.102Z,10.97
2018-09-17T04:06:41.686Z,10.93
2018-09-17T04:09:12.386Z,10.90
2018-09-17T04:11:40.834Z,10.88
2018-09-17T04:14:08.409Z,10.87
2018-09-17T04:16:36.851Z,10.84
2018-09-17T04:19:04.409Z,10.82
2018-09-17T04:21:32.042Z,10.79
2018-09-17T04:24:00.873Z,10.78
2018-09-17T04:26:28.447Z,10.77
2018-09-17T04:28:56.006Z,10.74
2018-09-17T04:31:23.998Z,10.72
2018-09-17T04:33:51.591Z,10.68
2018-09-17T04:36:19.134Z,10.65
2018-09-17T04:38:47.059Z,10.61
2018-09-17T04:41:14.605Z,10.60
2018-09-17T04:43:42.148Z,10.59
2018-09-17T04:46:10.163Z,10.62
2018-09-17T04:48:37.773Z,10.62
2018-09-17T04:51:05.323Z,10.65
2018-09-17T04:53:33.248Z,10.66
2018-09-17T04:56:00.784Z,10.68
2018-09-17T04:58:28.411Z,10.68
2018-09-17T05:00:58.041Z,10.68
2018-09-17T05:03:25.664Z,10.66
2018-09-17T05:05:53.199Z,10.63
2018-09-17T05:08:21.167Z,10.57
2018-09-17T05:10:51.559Z,10.52
2018-09-17T05:13:19.196Z,10.47
2018-09-17T05:15:47.295Z,10.43
2018-09-17T05:18:14.879Z,10.42
2018-09-17T05:20:42.494Z,10.41
2018-09-17T05:23:10.539Z,10.42
2018-09-17T05:25:38.130Z,10.45
2018-09-17T05:28:05.686Z,10.50
2018-09-17T05:30:33.622Z,10.54
2018-09-17T05:33:01.240Z,10.59
2018-09-17T05:35:28.907Z,10.64
2018-09-17T05:37:56.904Z,10.70
2018-09-17T05:40:24.507Z,10.74
2018-09-17T05:42:52.068Z,10.80
2018-09-17T05:45:20.387Z,10.87
2018-09-17T05:47:47.976Z,10.94
2018-09-17T05:50:15.556Z,11.02
2018-09-17T05:52:43.582Z,11.14
2018-09-17T05:55:12.020Z,11.21
2018-09-17T05:57:39.641Z,11.28
2018-09-17T06:00:09.307Z,11.33
2018-09-17T06:02:36.863Z,11.40
2018-09-17T06:05:04.489Z,11.44
2018-09-17T06:07:32.439Z,11.49
2018-09-17T06:10:00.047Z,11.54
2018-09-17T06:12:27.598Z,11.60
2018-09-17T06:14:55.481Z,11.66
2018-09-17T06:17:23.091Z,11.74
2018-09-17T06:19:50.667Z,11.82
2018-09-17T06:22:19.571Z,11.89
2018-09-17T06:24:47.122Z,11.94
2018-09-17T06:27:15.421Z,12.01
2018-09-17T06:29:43.400Z,12.10
2018-09-17T06:32:10.999Z,12.18
2018-09-17T06:34:38.568Z,12.26
2018-09-17T06:37:06.528Z,12.34
2018-09-17T06:39:34.102Z,12.42
2018-09-17T06:42:02.246Z,12.54
2018-09-17T06:44:30.149Z,12.67
2018-09-17T06:46:57.809Z,12.81
2018-09-17T06:49:25.555Z,12.92
2018-09-17T06:51:53.568Z,13.03
2018-09-17T06:54:21.126Z,13.17
2018-09-17T06:56:48.687Z,13.27
2018-09-17T06:59:16.687Z,13.37
2018-09-17T07:01:44.271Z,13.48
2018-09-17T07:04:11.815Z,13.56
2018-09-17T07:06:40.569Z,13.63
2018-09-17T07:09:08.811Z,13.74
2018-09-17T07:11:37.271Z,13.83
2018-09-17T07:14:05.201Z,13.92
2018-09-17T07:16:32.835Z,14.01
2018-09-17T07:19:00.470Z,14.09
2018-09-17T07:21:28.425Z,14.17
2018-09-17T07:23:57.628Z,14.27
2018-09-17T07:26:27.907Z,14.40
2018-09-17T07:28:56.431Z,14.55
2018-09-17T07:31:24.946Z,14.68
2018-09-17T07:33:52.594Z,14.81
2018-09-17T07:36:21.016Z,14.93
2018-09-17T07:38:48.851Z,15.05
2018-09-17T07:41:16.461Z,15.16
2018-09-17T07:43:44.556Z,15.29
2018-09-17T07:46:12.147Z,15.45
2018-09-17T07:51:20.135Z,15.77
2018-09-17T07:53:47.701Z,15.92
2018-09-17T07:56:15.261Z,16.08
2018-09-17T07:58:43.195Z,16.24
2018-09-17T08:01:11.007Z,16.42
2018-09-17T08:03:38.615Z,16.61
2018-09-17T08:06:08.619Z,16.79
2018-09-17T08:08:36.300Z,17.00
2018-09-17T08:11:03.946Z,17.18
2018-09-17T08:13:31.977Z,17.35
2018-09-17T08:15:59.619Z,17.50
2018-09-17T08:18:28.991Z,17.67
2018-09-17T08:20:58.659Z,17.84
2018-09-17T08:23:27.499Z,18.01
2018-09-17T08:25:55.513Z,18.20
2018-09-17T08:28:24.130Z,18.38
2018-09-17T08:30:51.781Z,18.58
2018-09-17T08:33:19.604Z,18.76
2018-09-17T08:35:52.136Z,18.97
2018-09-17T08:38:20.172Z,19.20
2018-09-17T08:40:48.356Z,19.44
2018-09-17T08:43:16.400Z,19.69
2018-09-17T08:45:44.076Z,19.95
2018-09-17T08:48:11.683Z,20.22
2018-09-17T08:50:42.294Z,20.48
2018-09-17T08:53:10.963Z,20.72
2018-09-17T08:55:47.196Z,20.93
2018-09-17T08:58:20.391Z,21.11
2018-09-17T09:00:53.191Z,21.29
2018-09-17T09:03:27.334Z,21.45
2018-09-17T09:08:01.393Z,21.61
2018-09-17T09:10:36.392Z,21.89
2018-09-17T09:13:16.266Z,22.06
2018-09-17T09:15:45.756Z,22.25
2018-09-17T09:18:14.906Z,22.44
2018-09-17T09:20:44.411Z,22.63
2018-09-17T09:23:14.483Z,22.82
2018-09-17T09:25:43.678Z,23.00
2018-09-17T09:28:11.642Z,23.18
2018-09-17T09:30:39.338Z,23.28
2018-09-17T09:33:06.972Z,23.39
2018-09-17T09:35:34.808Z,23.49
2018-09-17T09:38:03.009Z,23.60
2018-09-17T09:40:31.245Z,23.82
2018-09-17T09:42:59.946Z,24.22
2018-09-17T09:45:27.519Z,24.85
2018-09-17T09:47:59.556Z,25.58
2018-09-17T09:50:29.280Z,26.56
2018-09-17T09:52:58.304Z,27.35
2018-09-17T09:55:26.611Z,27.95
2018-09-17T09:57:56.788Z,28.42
2018-09-17T10:00:30.640Z,28.74
2018-09-17T10:03:06.194Z,28.99
2018-09-17T10:05:33.841Z,29.20
2018-09-17T10:08:02.555Z,29.56
2018-09-17T10:10:35.482Z,29.82
2018-09-17T10:13:08.104Z,29.97
2018-09-17T10:15:41.526Z,30.16
2018-09-17T10:18:14.394Z,30.37
2018-09-17T10:20:42.666Z,30.27
2018-09-17T10:23:10.540Z,29.94
2018-09-17T10:25:38.209Z,29.79
2018-09-17T10:28:06.795Z,29.77
2018-09-17T10:30:34.801Z,29.78
2018-09-17T10:33:03.167Z,29.87
2018-09-17T10:35:31.631Z,30.18
2018-09-17T10:38:00.546Z,30.59
2018-09-17T10:40:30.138Z,31.01
2018-09-17T10:42:57.783Z,31.46
2018-09-17T10:45:26.245Z,31.73
2018-09-17T10:47:53.794Z,31.63
2018-09-17T10:50:22.438Z,31.58
2018-09-17T10:52:50.679Z,31.65
2018-09-17T10:55:19.245Z,31.56
2018-09-17T10:57:46.884Z,31.51
2018-09-17T11:00:15.711Z,31.47
2018-09-17T11:02:44.211Z,31.42
2018-09-17T11:05:14.190Z,31.42
2018-09-17T11:07:43.635Z,31.57
2018-09-17T11:10:12.455Z,31.81
2018-09-17T11:12:41.971Z,31.87
2018-09-17T11:15:10.039Z,31.66
2018-09-17T11:17:37.653Z,31.58
2018-09-17T11:20:07.476Z,31.83
2018-09-17T11:22:37.559Z,32.06
2018-09-17T11:25:06.106Z,32.39
2018-09-17T11:27:33.678Z,32.65
2018-09-17T11:30:02.478Z,32.75
2018-09-17T11:32:31.525Z,32.78
2018-09-17T11:35:02.669Z,32.87
2018-09-17T11:37:31.080Z,33.30
2018-09-17T11:39:58.659Z,33.71
2018-09-17T11:42:27.176Z,34.09
2018-09-17T11:44:55.037Z,34.23
2018-09-17T11:47:22.745Z,34.44
2018-09-17T11:49:50.626Z,34.65
2018-09-17T11:52:18.674Z,34.91
2018-09-17T11:54:48.930Z,34.79
2018-09-17T11:57:17.140Z,34.79
2018-09-17T11:59:46.514Z,34.93
2018-09-17T12:02:19.159Z,35.13
2018-09-17T12:04:52.742Z,35.24
2018-09-17T12:07:26.427Z,35.53
2018-09-17T12:09:55.566Z,35.86
2018-09-17T12:12:25.156Z,36.25
2018-09-17T12:14:53.318Z,36.76
2018-09-17T12:17:20.873Z,36.80
2018-09-17T12:19:48.558Z,36.88
2018-09-17T12:22:16.630Z,36.93
2018-09-17T12:24:45.286Z,36.72
2018-09-17T12:27:13.742Z,36.48
2018-09-17T12:29:42.711Z,36.35
2018-09-17T12:32:10.578Z,36.20
2018-09-17T12:34:38.178Z,35.98
2018-09-17T12:37:06.303Z,36.03
2018-09-17T12:39:33.915Z,36.25
2018-09-17T12:42:03.117Z,36.29
2018-09-17T12:44:35.724Z,36.24
2018-09-17T12:47:03.360Z,36.02
2018-09-17T12:49:30.960Z,35.59
2018-09-17T12:52:05.431Z,35.14
2018-09-17T12:54:33.989Z,34.75
2018-09-17T12:57:01.609Z,34.38
2018-09-17T12:59:30.285Z,33.87
2018-09-17T13:01:57.898Z,33.22
2018-09-17T13:04:25.708Z,32.72
2018-09-17T13:06:55.472Z,32.33
2018-09-17T13:09:23.860Z,31.93
2018-09-17T13:11:52.552Z,31.60
2018-09-17T13:14:20.450Z,31.21
2018-09-17T13:16:48.042Z,30.71
2018-09-17T13:19:16.266Z,30.45
2018-09-17T13:21:46.950Z,30.30
2018-09-17T13:24:15.184Z,30.07
2018-09-17T13:26:43.618Z,29.87
2018-09-17T13:29:12.600Z,29.74
2018-09-17T13:31:41.553Z,29.69
2018-09-17T13:34:09.146Z,29.71
2018-09-17T13:36:38.360Z,29.64
2018-09-17T13:39:05.966Z,29.50
2018-09-17T13:41:33.871Z,29.29
2018-09-17T13:44:01.951Z,29.15
2018-09-17T13:46:29.561Z,29.13
2018-09-17T13:48:57.098Z,29.14
2018-09-17T13:51:25.868Z,29.09
2018-09-17T13:53:54.740Z,29.05
2018-09-17T13:56:22.332Z,29.03
2018-09-17T13:58:51.511Z,29.00
2018-09-17T14:01:19.294Z,28.99
2018-09-17T14:03:48.266Z,28.97
2018-09-17T14:06:16.682Z,28.91
2018-09-17T14:08:44.292Z,28.81
2018-09-17T14:11:12.305Z,28.81
2018-09-17T14:13:39.872Z,28.85
2018-09-17T14:16:08.639Z,28.92
2018-09-17T14:18:37.140Z,29.01
2018-09-17T14:21:04.736Z,29.03
2018-09-17T14:23:37.016Z,29.03
2018-09-17T14:26:05.403Z,29.00
2018-09-17T14:28:33.846Z,28.94
2018-09-17T14:31:01.393Z,28.92
2018-09-17T14:33:34.430Z,28.92
2018-09-17T14:38:48.260Z,28.83
2018-09-17T14:41:19.902Z,28.86
2018-09-17T14:43:49.992Z,28.93
2018-09-17T14:49:28.094Z,29.02
2018-09-17T14:51:58.217Z,29.02
2018-09-17T14:54:25.897Z,29.06
2018-09-17T14:56:54.693Z,29.13
2018-09-17T14:59:25.828Z,29.17
2018-09-17T15:01:56.205Z,29.19
2018-09-17T15:04:24.503Z,29.21
2018-09-17T15:06:52.483Z,29.23
2018-09-17T15:09:20.009Z,29.30
2018-09-17T15:11:48.058Z,29.38
2018-09-17T15:14:15.702Z,29.57
2018-09-17T15:16:45.305Z,29.81
2018-09-17T15:19:13.283Z,29.98
2018-09-17T15:21:42.092Z,30.12
2018-09-17T15:24:10.369Z,30.25
2018-09-17T15:26:38.296Z,30.23
2018-09-17T15:29:07.514Z,30.07
2018-09-17T15:31:35.083Z,29.91
2018-09-17T15:34:03.866Z,29.78
2018-09-17T15:36:31.396Z,29.79
2018-09-17T15:38:59.803Z,29.88
2018-09-17T15:41:27.785Z,30.13
2018-09-17T15:43:55.231Z,30.51
2018-09-17T15:46:25.636Z,30.97
2018-09-17T15:48:53.639Z,31.40
2018-09-17T15:51:22.271Z,31.71
2018-09-17T15:53:49.808Z,31.63
2018-09-17T15:56:20.013Z,31.10
2018-09-17T15:58:47.554Z,30.48
2018-09-17T16:01:15.341Z,29.87
2018-09-17T16:03:44.878Z,29.35
2018-09-17T16:06:12.456Z,28.87
2018-09-17T16:08:41.425Z,28.47
2018-09-17T16:11:09.350Z,28.17
2018-09-17T16:13:37.681Z,27.93
2018-09-17T16:16:06.302Z,27.71
2018-09-17T16:18:33.897Z,27.53
2018-09-17T16:21:01.537Z,27.34
2018-09-17T16:23:29.464Z,27.18
2018-09-17T16:25:57.023Z,27.03
2018-09-17T16:28:24.557Z,26.86
2018-09-17T16:30:52.569Z,26.71
2018-09-17T16:33:20.412Z,26.56
2018-09-17T16:35:48.790Z,26.42
2018-09-17T16:38:16.754Z,26.32
2018-09-17T16:40:44.898Z,26.24
2018-09-17T16:43:12.459Z,26.12
2018-09-17T16:45:40.395Z,25.98
2018-09-17T16:48:08.662Z,25.86
2018-09-17T16:50:36.289Z,25.74
2018-09-17T16:53:04.365Z,25.63
2018-09-17T16:55:32.628Z,25.51
2018-09-17T16:58:00.271Z,25.35
2018-09-17T17:00:28.971Z,25.17
2018-09-17T17:02:56.537Z,25.03
2018-09-17T17:05:24.776Z,24.85
2018-09-17T17:07:52.730Z,24.69
2018-09-17T17:10:21.258Z,24.51
2018-09-17T17:12:48.845Z,24.37
2018-09-17T17:15:28.255Z,24.21
2018-09-17T17:17:56.537Z,24.07
2018-09-17T17:20:24.977Z,23.90
2018-09-17T17:22:52.494Z,23.78
2018-09-17T17:25:20.074Z,23.64
2018-09-17T17:27:47.983Z,23.48
2018-09-17T17:30:15.555Z,23.31
2018-09-17T17:32:43.158Z,23.14
2018-09-17T17:35:11.406Z,22.98
2018-09-17T17:37:39.914Z,22.86
2018-09-17T17:40:07.456Z,22.75
2018-09-17T17:42:36.051Z,22.65
2018-09-17T17:45:03.650Z,22.53
2018-09-17T17:47:32.614Z,22.42
2018-09-17T17:50:00.728Z,22.27
2018-09-17T17:52:28.260Z,22.16
2018-09-17T17:57:30.514Z,21.88
2018-09-17T17:59:58.233Z,21.76
2018-09-17T18:02:25.796Z,21.64
2018-09-17T18:04:54.837Z,21.54
2018-09-17T18:07:23.510Z,21.46
2018-09-17T18:09:51.107Z,21.36
2018-09-17T18:12:19.025Z,21.26
2018-09-17T18:14:46.641Z,21.20
2018-09-17T18:17:14.309Z,21.11
2018-09-17T18:19:42.048Z,21.02
2018-09-17T18:22:09.640Z,20.93
2018-09-17T18:24:37.786Z,20.82
2018-09-17T18:27:05.638Z,20.72
2018-09-17T18:29:33.204Z,20.60
2018-09-17T18:32:01.110Z,20.48
2018-09-17T18:34:28.658Z,20.34
2018-09-17T18:36:59.240Z,20.22
2018-09-17T18:39:28.159Z,20.12
2018-09-17T18:41:57.514Z,20.02
2018-09-17T18:44:28.706Z,19.93
2018-09-17T18:46:59.390Z,19.86
2018-09-17T18:49:26.965Z,19.80
2018-09-17T18:51:58.807Z,19.75
2018-09-17T18:54:29.086Z,19.67
2018-09-17T18:59:39.954Z,19.48
2018-09-17T19:02:07.631Z,19.38
2018-09-17T19:04:37.324Z,19.27
2018-09-17T19:07:05.941Z,19.20
2018-09-17T19:09:38.693Z,19.11
2018-09-17T19:12:08.017Z,19.04
2018-09-17T19:14:41.112Z,18.96
2018-09-17T19:17:14.575Z,18.87
2018-09-17T19:19:44.609Z,18.79
2018-09-17T19:22:18.783Z,18.73
2018-09-17T19:24:46.421Z,18.67
2018-09-17T19:27:16.366Z,18.62
2018-09-17T19:29:44.702Z,18.54
2018-09-17T19:32:12.574Z,18.45
2018-09-17T19:34:41.321Z,18.36
2018-09-17T19:37:17.590Z,18.28
2018-09-17T19:39:50.471Z,18.20
2018-09-17T19:42:19.607Z,18.12
2018-09-17T19:44:52.547Z,18.04
2018-09-17T19:47:23.788Z,17.98
2018-09-17T19:49:52.577Z,17.92
2018-09-17T19:52:24.830Z,17.88
2018-09-17T19:54:54.124Z,17.84
2018-09-17T19:57:26.724Z,17.79
2018-09-17T19:59:57.227Z,17.79
2018-09-17T20:02:26.517Z,17.79
2018-09-17T20:04:59.218Z,17.78
2018-09-17T20:07:27.343Z,17.77
2018-09-17T20:09:56.688Z,17.77
2018-09-17T20:12:24.358Z,17.75
2018-09-17T20:14:52.459Z,17.69
2018-09-17T20:17:21.731Z,17.62
2018-09-17T20:19:50.367Z,17.51
2018-09-17T20:22:18.431Z,17.41
2018-09-17T20:24:47.368Z,17.31
2018-09-17T20:27:17.124Z,17.27
2018-09-17T20:29:44.991Z,17.20
2018-09-17T20:32:12.589Z,17.17
2018-09-17T20:34:40.269Z,17.13
2018-09-17T20:37:08.222Z,17.09
2018-09-17T20:39:35.851Z,17.06
2018-09-17T20:42:05.316Z,17.02
2018-09-17T20:44:33.255Z,16.99
2018-09-17T20:47:00.816Z,16.96
2018-09-17T20:49:28.492Z,16.91
2018-09-17T20:51:56.472Z,16.86
2018-09-17T20:54:24.061Z,16.81
2018-09-17T20:56:52.118Z,16.75
2018-09-17T20:59:20.019Z,16.70
2018-09-17T21:01:48.942Z,16.65
2018-09-17T21:04:17.568Z,16.61
2018-09-17T21:06:45.571Z,16.60
2018-09-17T21:09:14.542Z,16.58
2018-09-17T21:11:43.348Z,16.56
2018-09-17T21:14:11.456Z,16.53
2018-09-17T21:16:40.026Z,16.47
2018-09-17T21:19:08.526Z,16.42
2018-09-17T21:21:42.265Z,16.38
2018-09-17T21:24:09.841Z,16.32
2018-09-17T21:26:39.088Z,16.28
2018-09-17T21:29:07.009Z,16.26
2018-09-17T21:31:34.728Z,16.22
2018-09-17T21:34:02.352Z,16.19
2018-09-17T21:36:30.338Z,16.15
2018-09-17T21:38:58.945Z,16.12
2018-09-17T21:41:26.547Z,16.12
2018-09-17T21:43:54.491Z,16.12
2018-09-17T21:46:22.923Z,16.13
2018-09-17T21:48:50.589Z,16.11
2018-09-17T21:51:19.264Z,16.10
2018-09-17T21:53:50.474Z,16.11
2018-09-17T21:56:18.083Z,16.10
2018-09-17T21:58:46.912Z,16.09
2018-09-17T22:01:18.537Z,16.06
2018-09-17T22:03:46.101Z,16.05
2018-09-17T22:06:14.575Z,16.03
2018-09-17T22:08:42.239Z,16.03
2018-09-17T22:11:09.846Z,16.02
2018-09-17T22:13:38.464Z,15.98
2018-09-17T22:16:06.810Z,15.93
2018-09-17T22:18:35.281Z,15.90
2018-09-17T22:21:03.386Z,15.87
2018-09-17T22:23:30.970Z,15.87
2018-09-17T22:25:58.620Z,15.88
2018-09-17T22:28:26.743Z,15.89
2018-09-17T22:30:54.458Z,15.90
2018-09-17T22:33:22.165Z,15.90
2018-09-17T22:35:50.179Z,15.90
2018-09-17T22:38:17.864Z,15.89
2018-09-17T22:40:46.554Z,15.89
2018-09-17T22:43:14.619Z,15.89
2018-09-17T22:45:42.240Z,15.87
2018-09-17T22:48:09.868Z,15.87
2018-09-17T22:50:38.143Z,15.86
2018-09-17T22:53:05.716Z,15.83
2018-09-17T22:55:33.606Z,15.81
2018-09-17T22:58:01.204Z,15.76
2018-09-17T23:00:28.850Z,15.72
2018-09-17T23:02:58.668Z,15.68
2018-09-17T23:05:26.320Z,15.63
2018-09-17T23:07:53.922Z,15.58
2018-09-17T23:10:21.966Z,15.53
2018-09-17T23:12:49.567Z,15.49
2018-09-17T23:15:17.239Z,15.45
2018-09-17T23:17:44.847Z,15.41
2018-09-17T23:20:12.919Z,15.36
2018-09-17T23:22:40.487Z,15.33
2018-09-17T23:25:08.099Z,15.28
2018-09-17T23:27:35.688Z,15.24
2018-09-17T23:30:03.326Z,15.22
2018-09-17T23:32:30.891Z,15.19
2018-09-17T23:34:58.491Z,15.17
2018-09-17T23:37:26.070Z,15.15
2018-09-17T23:39:53.990Z,15.15
2018-09-17T23:42:21.587Z,15.16
2018-09-17T23:44:49.331Z,15.17
2018-09-17T23:47:17.003Z,15.19
2018-09-17T23:49:44.676Z,15.20
2018-09-17T23:52:12.294Z,15.22
2018-09-17T23:54:40.236Z,15.24
2018-09-17T23:57:07.848Z,15.25
2018-09-17T23:59:35.539Z,15.28
